Vg 117 Kungsvik — SBTH — position and weather

sailwx.info

Track history (hours):
 
Tides and Currents Weather Stations Pressure Air Temp Water Temp Dewpoint Dewpoint Depression Visibility Wind Speed Wind Dir Waves Ship Positions

Vg 117 Kungsvik

Last reported at 2014-Sep-16 12:09 UTC. Time now 2014-Sep-16 13:24 UTC.
Position N 56°40' E 012°13'.

Length 17 m.

Type: Fishing. MMSI: 266137000.

Date/timePositionNaut miles runAvg speedWind from/ knotsBaromVisibWave heightAir tempDewpointWater temp
2014-Sep-16 12:09N 56°40' E 012°13'2 2.6
2014-Sep-16 11:33N 56°42' E 012°13'3 2.6
2014-Sep-16 10:31N 56°44' E 012°16'1 1.5
2014-Sep-16 09:33N 56°45' E 012°16'2 2.2
2014-Sep-16 08:33N 56°43' E 012°14'2 2.3
2014-Sep-16 07:29N 56°41' E 012°12'2 2.0
2014-Sep-16 06:32N 56°41' E 012°09'3 2.4
2014-Sep-16 05:25N 56°43' E 012°08'2 2.4
2014-Sep-16 04:33N 56°45' E 012°10'2 2.4
2014-Sep-16 03:33N 56°48' E 012°12'6 6.4
2014-Sep-16 02:33N 56°54' E 012°13'8 7.4
2014-Sep-16 01:31N 57°02' E 012°14'2 2.1
2014-Sep-16 00:26N 57°04' E 012°16'0 0.0
2014-Sep-15 23:32N 57°04' E 012°16'0 0.0
2014-Sep-15 22:32N 57°04' E 012°16'0 0.0
2014-Sep-15 21:20N 57°04' E 012°16'0 0.0
2014-Sep-15 20:32N 57°04' E 012°16'0 0.0
2014-Sep-15 19:32N 57°04' E 012°16'0 0.0
2014-Sep-15 18:32N 57°04' E 012°16'3 3.5
2014-Sep-15 17:33N 57°00' E 012°14'7 6.1
2014-Sep-15 16:28N 56°54' E 012°12'2 2.1
2014-Sep-15 15:33N 56°52' E 012°10'2 2.3
2014-Sep-15 14:33N 56°51' E 012°07'3 2.5
2014-Sep-15 13:33N 56°51' E 012°11'2 1.7
2014-Sep-15 12:32N 56°52' E 012°09'2 1.8
2014-Sep-15 11:33N 56°51' E 012°08'2 2.5
2014-Sep-15 10:33N 56°51' E 012°12'1 1.4
2014-Sep-15 09:32N 56°50' E 012°13'2 2.5
2014-Sep-15 08:33N 56°47' E 012°13'2 2.4
2014-Sep-15 07:33N 56°45' E 012°15'2 2.1
2014-Sep-15 06:33N 56°43' E 012°14'2 1.7
2014-Sep-15 05:33N 56°43' E 012°11'2 2.3
2014-Sep-15 04:33N 56°45' E 012°10'4 3.9
2014-Sep-15 03:33N 56°49' E 012°11'7 6.8
2014-Sep-15 02:32N 56°56' E 012°12'7 7.0
2014-Sep-15 01:33N 57°03' E 012°15'1 1.2
2014-Sep-15 00:27N 57°04' E 012°16'0 0.0
2014-Sep-14 23:09N 57°04' E 012°16'0 0.0
2014-Sep-14 22:33N 57°04' E 012°16'0 0.0
2014-Sep-14 21:21N 57°04' E 012°16'0 0.0
2014-Sep-14 20:21N 57°04' E 012°16'0 0.0
2014-Sep-14 19:03N 57°04' E 012°16'0 0.0
2014-Sep-14 18:27N 57°04' E 012°16'0 0.0
2014-Sep-14 17:33N 57°04' E 012°16'0 0.0
2014-Sep-14 16:27N 57°04' E 012°16'0 0.0
2014-Sep-14 15:27N 57°04' E 012°16'0 0.0
2014-Sep-14 14:33N 57°04' E 012°16'0 0.0
2014-Sep-14 10:33N 57°04' E 012°16'0 0.0
2014-Sep-14 09:27N 57°04' E 012°16'0 0.0
2014-Sep-14 08:15N 57°04' E 012°16'0 0.0
2014-Sep-14 07:33N 57°04' E 012°16'0 0.0
2014-Sep-14 06:33N 57°04' E 012°16'0 0.0
2014-Sep-14 05:21N 57°04' E 012°16'0 0.0
2014-Sep-14 04:27N 57°04' E 012°16'0 0.0
2014-Sep-14 03:28N 57°04' E 012°16'0 0.0
2014-Sep-14 02:28N 57°04' E 012°16'0 0.0
2014-Sep-14 01:34N 57°04' E 012°16'0 0.0
2014-Sep-13 20:10N 57°04' E 012°16'0 0.0
2014-Sep-13 19:22N 57°04' E 012°16'0 0.0
2014-Sep-13 18:28N 57°04' E 012°16'0 0.0
2014-Sep-13 17:28N 57°04' E 012°16'0 0.0
2014-Sep-13 16:28N 57°04' E 012°16'0 0.0
2014-Sep-13 15:28N 57°04' E 012°16'0 0.0
2014-Sep-13 14:22N 57°04' E 012°16'0 0.0
2014-Sep-13 13:28N 57°04' E 012°16'0 0.0
2014-Sep-13 12:28N 57°04' E 012°16'0 0.0
2014-Sep-13 11:28N 57°04' E 012°16'0 0.0
2014-Sep-13 10:10N 57°04' E 012°16'0 0.0
2014-Sep-13 09:28N 57°04' E 012°16'0 0.0
2014-Sep-13 08:28N 57°04' E 012°16'0 0.0
2014-Sep-13 07:28N 57°04' E 012°16'0 0.0
2014-Sep-13 06:04N 57°04' E 012°16'0 0.0
2014-Sep-13 05:16N 57°04' E 012°16'0 0.0
2014-Sep-13 04:22N 57°04' E 012°16'0 0.0
2014-Sep-13 03:22N 57°04' E 012°16'0 0.0
2014-Sep-13 02:22N 57°04' E 012°16'0 0.0
2014-Sep-13 01:16N 57°04' E 012°16'0 0.0
2014-Sep-13 00:28N 57°04' E 012°16'0 0.0
2014-Sep-12 23:04N 57°04' E 012°16'0 0.0
2014-Sep-12 22:28N 57°04' E 012°16'0 0.0
2014-Sep-12 21:04N 57°04' E 012°16'0 0.0
2014-Sep-12 20:28N 57°04' E 012°16'0 0.0
2014-Sep-12 19:10N 57°04' E 012°16'0 0.0
2014-Sep-12 18:28N 57°04' E 012°16'0 0.0
2014-Sep-12 17:10N 57°04' E 012°16'0 0.0
2014-Sep-12 16:28N 57°04' E 012°16'0 0.0
2014-Sep-12 15:28N 57°04' E 012°16'0 0.0
2014-Sep-12 13:16N 57°04' E 012°16'0 0.0
2014-Sep-12 12:22N 57°04' E 012°16'0 0.0
2014-Sep-12 11:22N 57°04' E 012°16'0 0.0
2014-Sep-12 10:04N 57°04' E 012°16'0 0.0
2014-Sep-12 09:22N 57°04' E 012°16'0 0.0
2014-Sep-12 08:28N 57°04' E 012°16'0 0.0
2014-Sep-12 07:28N 57°04' E 012°16'0 0.0
2014-Sep-12 06:28N 57°04' E 012°16'0 0.0
2014-Sep-12 05:28N 57°04' E 012°16'0 0.0
2014-Sep-12 04:28N 57°04' E 012°16'0 0.0
2014-Sep-12 03:28N 57°04' E 012°16'0 0.0
2014-Sep-12 02:28N 57°04' E 012°16'0 0.0
2014-Sep-12 01:22N 57°04' E 012°16'0 0.0
2014-Sep-12 00:28N 57°04' E 012°16'0 0.0
2014-Sep-11 23:28N 57°04' E 012°16'0 0.0
2014-Sep-11 22:16N 57°04' E 012°16'0 0.0
2014-Sep-11 21:16N 57°04' E 012°16'0 0.0
2014-Sep-11 20:28N 57°04' E 012°16'0 0.0
2014-Sep-11 19:28N 57°04' E 012°16'1 1.2
2014-Sep-11 18:31N 57°03' E 012°15'8 8.1
2014-Sep-11 17:30N 56°55' E 012°12'4 4.0
2014-Sep-11 16:33N 56°51' E 012°10'1 1.4
2014-Sep-11 15:33N 56°52' E 012°10'2 1.7
2014-Sep-11 14:33N 56°51' E 012°10'2 1.7
2014-Sep-11 13:33N 56°52' E 012°09'2 2.1
2014-Sep-11 12:33N 56°51' E 012°12'3 2.5
2014-Sep-11 11:32N 56°51' E 012°08'2 1.7
2014-Sep-11 10:33N 56°52' E 012°09'2 1.7
2014-Sep-11 09:31N 56°51' E 012°11'2 2.1
2014-Sep-11 08:33N 56°51' E 012°07'2 2.2
2014-Sep-11 07:33N 56°52' E 012°10'2 1.6
2014-Sep-11 06:33N 56°51' E 012°11'3 2.6
2014-Sep-11 05:33N 56°51' E 012°06'2 2.4
2014-Sep-11 04:33N 56°52' E 012°04'2 2.2
2014-Sep-11 03:33N 56°54' E 012°06'3 3.3
2014-Sep-11 02:33N 56°57' E 012°09'7 7.1
2014-Sep-11 01:32N 57°03' E 012°16'1 0.5
2014-Sep-11 00:31N 57°04' E 012°16'0 0.0
2014-Sep-10 23:31N 57°04' E 012°16'0 0.0
2014-Sep-10 22:31N 57°04' E 012°16'0 0.0
2014-Sep-10 21:31N 57°04' E 012°16'0 0.0
2014-Sep-10 20:31N 57°04' E 012°16'0 0.0
2014-Sep-10 19:31N 57°04' E 012°16'0 0.0
2014-Sep-10 18:31N 57°04' E 012°16'0 0.0
2014-Sep-10 17:25N 57°04' E 012°16'0 0.0
2014-Sep-10 16:25N 57°04' E 012°16'1 0.2
2014-Sep-10 11:17N 57°03' E 012°15'5 7.5
2014-Sep-10 10:33N 56°58' E 012°12'3 2.5
2014-Sep-10 09:30N 56°55' E 012°10'1 1.3
2014-Sep-10 08:33N 56°56' E 012°08'2 2.3
2014-Sep-10 07:33N 56°54' E 012°05'2 1.9
2014-Sep-10 06:33N 56°54' E 012°08'2 2.0
2014-Sep-10 05:33N 56°53' E 012°05'2 2.3
2014-Sep-10 04:33N 56°55' E 012°06'2 2.4
2014-Sep-10 03:33N 56°56' E 012°10'2 2.4
2014-Sep-10 02:33N 56°57' E 012°14'7 6.5
2014-Sep-10 01:31N 57°03' E 012°15'1 0.6
2014-Sep-10 00:29N 57°04' E 012°16'0 0.0
2014-Sep-09 23:29N 57°04' E 012°16'0 0.0
2014-Sep-09 22:29N 57°04' E 012°16'0 0.0
2014-Sep-09 21:29N 57°04' E 012°16'0 0.0
2014-Sep-09 20:29N 57°04' E 012°16'0 0.0
2014-Sep-09 19:29N 57°04' E 012°16'0 0.0
2014-Sep-09 18:17N 57°04' E 012°16'1 1.7
2014-Sep-09 17:33N 57°03' E 012°15'7 6.9
2014-Sep-09 16:32N 56°56' E 012°12'2 1.8
2014-Sep-09 15:33N 56°56' E 012°09'2 2.3
2014-Sep-09 14:34N 56°54' E 012°05'1 0.6
2014-Sep-09 13:33N 56°54' E 012°06'2 1.5
2014-Sep-09 12:33N 56°55' E 012°06'2 1.7
2014-Sep-09 11:30N 56°54' E 012°08'2 2.0
2014-Sep-09 10:33N 56°53' E 012°05'2 1.8
2014-Sep-09 09:33N 56°55' E 012°06'4 4.0
2014-Sep-09 08:33N 56°58' E 012°10'7 4.7
2014-Sep-09 07:09N 57°04' E 012°16'0 0.0
2014-Sep-09 06:34N 57°04' E 012°16'0 0.0
2014-Sep-09 05:34N 57°04' E 012°16'0 0.0
2014-Sep-09 04:34N 57°04' E 012°16'0 0.0
2014-Sep-09 03:28N 57°04' E 012°16'0 0.0
2014-Sep-09 02:22N 57°04' E 012°16'0 0.0
2014-Sep-09 01:28N 57°04' E 012°16'0 0.0
2014-Sep-09 00:28N 57°04' E 012°16'0 0.0
2014-Sep-08 23:28N 57°04' E 012°16'0 0.0
2014-Sep-08 22:28N 57°04' E 012°16'0 0.0
2014-Sep-08 21:28N 57°04' E 012°16'0 0.0
2014-Sep-08 20:28N 57°04' E 012°16'0 0.0
2014-Sep-08 19:28N 57°04' E 012°16'0 0.0
2014-Sep-08 18:28N 57°04' E 012°16'0 0.0
2014-Sep-08 17:28N 57°04' E 012°16'1 1.6
2014-Sep-08 16:33N 57°02' E 012°14'6 6.3
2014-Sep-08 15:33N 56°56' E 012°11'2 2.1
2014-Sep-08 14:33N 56°56' E 012°08'2 2.4
2014-Sep-08 13:33N 56°54' E 012°05'1 0.8
2014-Sep-08 12:33N 56°54' E 012°06'2 1.8
2014-Sep-08 11:33N 56°56' E 012°07'2 2.3
2014-Sep-08 10:32N 56°54' E 012°05'2 2.0
2014-Sep-08 09:33N 56°56' E 012°07'2 1.7
2014-Sep-08 08:32N 56°56' E 012°10'2 2.4
2014-Sep-08 07:32N 56°55' E 012°06'2 2.0
2014-Sep-08 06:33N 56°53' E 012°06'2 2.5
2014-Sep-08 05:33N 56°52' E 012°02'1 0.6
2014-Sep-08 04:33N 56°52' E 012°01'3 2.6
2014-Sep-08 03:33N 56°53' E 012°05'3 2.5
2014-Sep-08 02:33N 56°55' E 012°07'5 5.3
2014-Sep-08 01:33N 56°60' E 012°11'5 3.8
2014-Sep-08 00:20N 57°04' E 012°16'0 0.0
2014-Sep-07 23:15N 57°04' E 012°16'0 0.0
2014-Sep-07 22:27N 57°04' E 012°16'0 0.0
2014-Sep-07 21:33N 57°04' E 012°16'0 0.0
2014-Sep-07 20:21N 57°04' E 012°16'0 0.0
2014-Sep-07 19:21N 57°04' E 012°16'0 0.0
2014-Sep-07 18:33N 57°04' E 012°16'0 0.0
2014-Sep-07 17:33N 57°04' E 012°16'0 0.0
2014-Sep-07 16:27N 57°04' E 012°16'0 0.0
2014-Sep-07 15:33N 57°04' E 012°16'0 0.0
2014-Sep-07 14:33N 57°04' E 012°16'0 0.0
2014-Sep-07 13:27N 57°04' E 012°16'0 0.0
2014-Sep-07 12:21N 57°04' E 012°16'0 0.0
2014-Sep-07 11:21N 57°04' E 012°16'0 0.0
2014-Sep-07 10:33N 57°04' E 012°16'0 0.0
2014-Sep-07 09:27N 57°04' E 012°16'0 0.0
2014-Sep-07 08:21N 57°04' E 012°16'0 0.0
2014-Sep-07 07:33N 57°04' E 012°16'0 0.0
2014-Sep-07 06:33N 57°04' E 012°16'0 0.0
2014-Sep-07 05:27N 57°04' E 012°16'0 0.0
2014-Sep-07 03:33N 57°04' E 012°16'0 0.0
2014-Sep-07 02:33N 57°04' E 012°16'0 0.0
2014-Sep-07 01:27N 57°04' E 012°16'0 0.0
2014-Sep-07 00:09N 57°04' E 012°16'0 0.0
2014-Sep-06 23:33N 57°04' E 012°16'0 0.0
2014-Sep-06 22:27N 57°04' E 012°16'0 0.0
2014-Sep-06 21:09N 57°04' E 012°16'0 0.0
2014-Sep-06 20:33N 57°04' E 012°16'0 0.0
2014-Sep-06 19:33N 57°04' E 012°16'0 0.0
2014-Sep-06 18:15N 57°04' E 012°16'0 0.0
2014-Sep-06 17:33N 57°04' E 012°16'0 0.0
2014-Sep-06 16:33N 57°04' E 012°16'0 0.0
2014-Sep-06 15:33N 57°04' E 012°16'0 0.0
2014-Sep-06 14:33N 57°04' E 012°16'0 0.0
2014-Sep-06 13:33N 57°04' E 012°16'0 0.0
2014-Sep-06 12:33N 57°04' E 012°16'  
Track history (hours):
 
Tides and Currents Weather Stations Pressure Air Temp Water Temp Dewpoint Dewpoint Depression Visibility Wind Speed Wind Dir Waves Ship Positions

Vg 117 Kungsvik

Last reported at 2014-Sep-16 12:09 UTC. Time now 2014-Sep-16 13:24 UTC.
Position N 56°40' E 012°13'.

Length 17 m.

Type: Fishing. MMSI: 266137000.

Date/timePositionNaut miles runAvg speedWind from/ knotsBaromVisibWave heightAir tempDewpointWater temp
2014-Sep-16 12:09N 56°40' E 012°13'2 2.6
2014-Sep-16 11:33N 56°42' E 012°13'3 2.6
2014-Sep-16 10:31N 56°44' E 012°16'1 1.5
2014-Sep-16 09:33N 56°45' E 012°16'2 2.2
2014-Sep-16 08:33N 56°43' E 012°14'2 2.3
2014-Sep-16 07:29N 56°41' E 012°12'2 2.0
2014-Sep-16 06:32N 56°41' E 012°09'3 2.4
2014-Sep-16 05:25N 56°43' E 012°08'2 2.4
2014-Sep-16 04:33N 56°45' E 012°10'2 2.4
2014-Sep-16 03:33N 56°48' E 012°12'6 6.4
2014-Sep-16 02:33N 56°54' E 012°13'8 7.4
2014-Sep-16 01:31N 57°02' E 012°14'2 2.1
2014-Sep-16 00:26N 57°04' E 012°16'0 0.0
2014-Sep-15 23:32N 57°04' E 012°16'0 0.0
2014-Sep-15 22:32N 57°04' E 012°16'0 0.0
2014-Sep-15 21:20N 57°04' E 012°16'0 0.0
2014-Sep-15 20:32N 57°04' E 012°16'0 0.0
2014-Sep-15 19:32N 57°04' E 012°16'0 0.0
2014-Sep-15 18:32N 57°04' E 012°16'3 3.5
2014-Sep-15 17:33N 57°00' E 012°14'7 6.1
2014-Sep-15 16:28N 56°54' E 012°12'2 2.1
2014-Sep-15 15:33N 56°52' E 012°10'2 2.3
2014-Sep-15 14:33N 56°51' E 012°07'3 2.5
2014-Sep-15 13:33N 56°51' E 012°11'2 1.7
2014-Sep-15 12:32N 56°52' E 012°09'2 1.8
2014-Sep-15 11:33N 56°51' E 012°08'2 2.5
2014-Sep-15 10:33N 56°51' E 012°12'1 1.4
2014-Sep-15 09:32N 56°50' E 012°13'2 2.5
2014-Sep-15 08:33N 56°47' E 012°13'2 2.4
2014-Sep-15 07:33N 56°45' E 012°15'2 2.1
2014-Sep-15 06:33N 56°43' E 012°14'2 1.7
2014-Sep-15 05:33N 56°43' E 012°11'2 2.3
2014-Sep-15 04:33N 56°45' E 012°10'4 3.9
2014-Sep-15 03:33N 56°49' E 012°11'7 6.8
2014-Sep-15 02:32N 56°56' E 012°12'7 7.0
2014-Sep-15 01:33N 57°03' E 012°15'1 1.2
2014-Sep-15 00:27N 57°04' E 012°16'0 0.0
2014-Sep-14 23:09N 57°04' E 012°16'0 0.0
2014-Sep-14 22:33N 57°04' E 012°16'0 0.0
2014-Sep-14 21:21N 57°04' E 012°16'0 0.0
2014-Sep-14 20:21N 57°04' E 012°16'0 0.0
2014-Sep-14 19:03N 57°04' E 012°16'0 0.0
2014-Sep-14 18:27N 57°04' E 012°16'0 0.0
2014-Sep-14 17:33N 57°04' E 012°16'0 0.0
2014-Sep-14 16:27N 57°04' E 012°16'0 0.0
2014-Sep-14 15:27N 57°04' E 012°16'0 0.0
2014-Sep-14 14:33N 57°04' E 012°16'0 0.0
2014-Sep-14 10:33N 57°04' E 012°16'0 0.0
2014-Sep-14 09:27N 57°04' E 012°16'0 0.0
2014-Sep-14 08:15N 57°04' E 012°16'0 0.0
2014-Sep-14 07:33N 57°04' E 012°16'0 0.0
2014-Sep-14 06:33N 57°04' E 012°16'0 0.0
2014-Sep-14 05:21N 57°04' E 012°16'0 0.0
2014-Sep-14 04:27N 57°04' E 012°16'0 0.0
2014-Sep-14 03:28N 57°04' E 012°16'0 0.0
2014-Sep-14 02:28N 57°04' E 012°16'0 0.0
2014-Sep-14 01:34N 57°04' E 012°16'0 0.0
2014-Sep-13 20:10N 57°04' E 012°16'0 0.0
2014-Sep-13 19:22N 57°04' E 012°16'0 0.0
2014-Sep-13 18:28N 57°04' E 012°16'0 0.0
2014-Sep-13 17:28N 57°04' E 012°16'0 0.0
2014-Sep-13 16:28N 57°04' E 012°16'0 0.0
2014-Sep-13 15:28N 57°04' E 012°16'0 0.0
2014-Sep-13 14:22N 57°04' E 012°16'0 0.0
2014-Sep-13 13:28N 57°04' E 012°16'0 0.0
2014-Sep-13 12:28N 57°04' E 012°16'0 0.0
2014-Sep-13 11:28N 57°04' E 012°16'0 0.0
2014-Sep-13 10:10N 57°04' E 012°16'0 0.0
2014-Sep-13 09:28N 57°04' E 012°16'0 0.0
2014-Sep-13 08:28N 57°04' E 012°16'0 0.0
2014-Sep-13 07:28N 57°04' E 012°16'0 0.0
2014-Sep-13 06:04N 57°04' E 012°16'0 0.0
2014-Sep-13 05:16N 57°04' E 012°16'0 0.0
2014-Sep-13 04:22N 57°04' E 012°16'0 0.0
2014-Sep-13 03:22N 57°04' E 012°16'0 0.0
2014-Sep-13 02:22N 57°04' E 012°16'0 0.0
2014-Sep-13 01:16N 57°04' E 012°16'0 0.0
2014-Sep-13 00:28N 57°04' E 012°16'0 0.0
2014-Sep-12 23:04N 57°04' E 012°16'0 0.0
2014-Sep-12 22:28N 57°04' E 012°16'0 0.0
2014-Sep-12 21:04N 57°04' E 012°16'0 0.0
2014-Sep-12 20:28N 57°04' E 012°16'0 0.0
2014-Sep-12 19:10N 57°04' E 012°16'0 0.0
2014-Sep-12 18:28N 57°04' E 012°16'0 0.0
2014-Sep-12 17:10N 57°04' E 012°16'0 0.0
2014-Sep-12 16:28N 57°04' E 012°16'0 0.0
2014-Sep-12 15:28N 57°04' E 012°16'0 0.0
2014-Sep-12 13:16N 57°04' E 012°16'0 0.0
2014-Sep-12 12:22N 57°04' E 012°16'0 0.0
2014-Sep-12 11:22N 57°04' E 012°16'0 0.0
2014-Sep-12 10:04N 57°04' E 012°16'0 0.0
2014-Sep-12 09:22N 57°04' E 012°16'0 0.0
2014-Sep-12 08:28N 57°04' E 012°16'0 0.0
2014-Sep-12 07:28N 57°04' E 012°16'0 0.0
2014-Sep-12 06:28N 57°04' E 012°16'0 0.0
2014-Sep-12 05:28N 57°04' E 012°16'0 0.0
2014-Sep-12 04:28N 57°04' E 012°16'0 0.0
2014-Sep-12 03:28N 57°04' E 012°16'0 0.0
2014-Sep-12 02:28N 57°04' E 012°16'0 0.0
2014-Sep-12 01:22N 57°04' E 012°16'0 0.0
2014-Sep-12 00:28N 57°04' E 012°16'0 0.0
2014-Sep-11 23:28N 57°04' E 012°16'0 0.0
2014-Sep-11 22:16N 57°04' E 012°16'0 0.0
2014-Sep-11 21:16N 57°04' E 012°16'0 0.0
2014-Sep-11 20:28N 57°04' E 012°16'0 0.0
2014-Sep-11 19:28N 57°04' E 012°16'1 1.2
2014-Sep-11 18:31N 57°03' E 012°15'8 8.1
2014-Sep-11 17:30N 56°55' E 012°12'4 4.0
2014-Sep-11 16:33N 56°51' E 012°10'1 1.4
2014-Sep-11 15:33N 56°52' E 012°10'2 1.7
2014-Sep-11 14:33N 56°51' E 012°10'2 1.7
2014-Sep-11 13:33N 56°52' E 012°09'2 2.1
2014-Sep-11 12:33N 56°51' E 012°12'3 2.5
2014-Sep-11 11:32N 56°51' E 012°08'2 1.7
2014-Sep-11 10:33N 56°52' E 012°09'2 1.7
2014-Sep-11 09:31N 56°51' E 012°11'2 2.1
2014-Sep-11 08:33N 56°51' E 012°07'2 2.2
2014-Sep-11 07:33N 56°52' E 012°10'2 1.6
2014-Sep-11 06:33N 56°51' E 012°11'3 2.6
2014-Sep-11 05:33N 56°51' E 012°06'2 2.4
2014-Sep-11 04:33N 56°52' E 012°04'2 2.2
2014-Sep-11 03:33N 56°54' E 012°06'3 3.3
2014-Sep-11 02:33N 56°57' E 012°09'7 7.1
2014-Sep-11 01:32N 57°03' E 012°16'1 0.5
2014-Sep-11 00:31N 57°04' E 012°16'0 0.0
2014-Sep-10 23:31N 57°04' E 012°16'0 0.0
2014-Sep-10 22:31N 57°04' E 012°16'0 0.0
2014-Sep-10 21:31N 57°04' E 012°16'0 0.0
2014-Sep-10 20:31N 57°04' E 012°16'0 0.0
2014-Sep-10 19:31N 57°04' E 012°16'0 0.0
2014-Sep-10 18:31N 57°04' E 012°16'0 0.0
2014-Sep-10 17:25N 57°04' E 012°16'0 0.0
2014-Sep-10 16:25N 57°04' E 012°16'1 0.2
2014-Sep-10 11:17N 57°03' E 012°15'5 7.5
2014-Sep-10 10:33N 56°58' E 012°12'3 2.5
2014-Sep-10 09:30N 56°55' E 012°10'1 1.3
2014-Sep-10 08:33N 56°56' E 012°08'2 2.3
2014-Sep-10 07:33N 56°54' E 012°05'2 1.9
2014-Sep-10 06:33N 56°54' E 012°08'2 2.0
2014-Sep-10 05:33N 56°53' E 012°05'2 2.3
2014-Sep-10 04:33N 56°55' E 012°06'2 2.4
2014-Sep-10 03:33N 56°56' E 012°10'2 2.4
2014-Sep-10 02:33N 56°57' E 012°14'7 6.5
2014-Sep-10 01:31N 57°03' E 012°15'1 0.6
2014-Sep-10 00:29N 57°04' E 012°16'0 0.0
2014-Sep-09 23:29N 57°04' E 012°16'0 0.0
2014-Sep-09 22:29N 57°04' E 012°16'0 0.0
2014-Sep-09 21:29N 57°04' E 012°16'0 0.0
2014-Sep-09 20:29N 57°04' E 012°16'0 0.0
2014-Sep-09 19:29N 57°04' E 012°16'0 0.0
2014-Sep-09 18:17N 57°04' E 012°16'1 1.7
2014-Sep-09 17:33N 57°03' E 012°15'7 6.9
2014-Sep-09 16:32N 56°56' E 012°12'2 1.8
2014-Sep-09 15:33N 56°56' E 012°09'2 2.3
2014-Sep-09 14:34N 56°54' E 012°05'1 0.6
2014-Sep-09 13:33N 56°54' E 012°06'2 1.5
2014-Sep-09 12:33N 56°55' E 012°06'2 1.7
2014-Sep-09 11:30N 56°54' E 012°08'2 2.0
2014-Sep-09 10:33N 56°53' E 012°05'2 1.8
2014-Sep-09 09:33N 56°55' E 012°06'4 4.0
2014-Sep-09 08:33N 56°58' E 012°10'7 4.7
2014-Sep-09 07:09N 57°04' E 012°16'0 0.0
2014-Sep-09 06:34N 57°04' E 012°16'0 0.0
2014-Sep-09 05:34N 57°04' E 012°16'0 0.0
2014-Sep-09 04:34N 57°04' E 012°16'0 0.0
2014-Sep-09 03:28N 57°04' E 012°16'0 0.0
2014-Sep-09 02:22N 57°04' E 012°16'0 0.0
2014-Sep-09 01:28N 57°04' E 012°16'0 0.0
2014-Sep-09 00:28N 57°04' E 012°16'0 0.0
2014-Sep-08 23:28N 57°04' E 012°16'0 0.0
2014-Sep-08 22:28N 57°04' E 012°16'0 0.0
2014-Sep-08 21:28N 57°04' E 012°16'0 0.0
2014-Sep-08 20:28N 57°04' E 012°16'0 0.0
2014-Sep-08 19:28N 57°04' E 012°16'0 0.0
2014-Sep-08 18:28N 57°04' E 012°16'0 0.0
2014-Sep-08 17:28N 57°04' E 012°16'1 1.6
2014-Sep-08 16:33N 57°02' E 012°14'6 6.3
2014-Sep-08 15:33N 56°56' E 012°11'2 2.1
2014-Sep-08 14:33N 56°56' E 012°08'2 2.4
2014-Sep-08 13:33N 56°54' E 012°05'1 0.8
2014-Sep-08 12:33N 56°54' E 012°06'2 1.8
2014-Sep-08 11:33N 56°56' E 012°07'2 2.3
2014-Sep-08 10:32N 56°54' E 012°05'2 2.0
2014-Sep-08 09:33N 56°56' E 012°07'2 1.7
2014-Sep-08 08:32N 56°56' E 012°10'2 2.4
2014-Sep-08 07:32N 56°55' E 012°06'2 2.0
2014-Sep-08 06:33N 56°53' E 012°06'2 2.5
2014-Sep-08 05:33N 56°52' E 012°02'1 0.6
2014-Sep-08 04:33N 56°52' E 012°01'3 2.6
2014-Sep-08 03:33N 56°53' E 012°05'3 2.5
2014-Sep-08 02:33N 56°55' E 012°07'5 5.3
2014-Sep-08 01:33N 56°60' E 012°11'5 3.8
2014-Sep-08 00:20N 57°04' E 012°16'0 0.0
2014-Sep-07 23:15N 57°04' E 012°16'0 0.0
2014-Sep-07 22:27N 57°04' E 012°16'0 0.0
2014-Sep-07 21:33N 57°04' E 012°16'0 0.0
2014-Sep-07 20:21N 57°04' E 012°16'0 0.0
2014-Sep-07 19:21N 57°04' E 012°16'0 0.0
2014-Sep-07 18:33N 57°04' E 012°16'0 0.0
2014-Sep-07 17:33N 57°04' E 012°16'0 0.0
2014-Sep-07 16:27N 57°04' E 012°16'0 0.0
2014-Sep-07 15:33N 57°04' E 012°16'0 0.0
2014-Sep-07 14:33N 57°04' E 012°16'0 0.0
2014-Sep-07 13:27N 57°04' E 012°16'0 0.0
2014-Sep-07 12:21N 57°04' E 012°16'0 0.0
2014-Sep-07 11:21N 57°04' E 012°16'0 0.0
2014-Sep-07 10:33N 57°04' E 012°16'0 0.0
2014-Sep-07 09:27N 57°04' E 012°16'0 0.0
2014-Sep-07 08:21N 57°04' E 012°16'0 0.0
2014-Sep-07 07:33N 57°04' E 012°16'0 0.0
2014-Sep-07 06:33N 57°04' E 012°16'0 0.0
2014-Sep-07 05:27N 57°04' E 012°16'0 0.0
2014-Sep-07 03:33N 57°04' E 012°16'0 0.0
2014-Sep-07 02:33N 57°04' E 012°16'0 0.0
2014-Sep-07 01:27N 57°04' E 012°16'0 0.0
2014-Sep-07 00:09N 57°04' E 012°16'0 0.0
2014-Sep-06 23:33N 57°04' E 012°16'0 0.0
2014-Sep-06 22:27N 57°04' E 012°16'0 0.0
2014-Sep-06 21:09N 57°04' E 012°16'0 0.0
2014-Sep-06 20:33N 57°04' E 012°16'0 0.0
2014-Sep-06 19:33N 57°04' E 012°16'0 0.0
2014-Sep-06 18:15N 57°04' E 012°16'0 0.0
2014-Sep-06 17:33N 57°04' E 012°16'0 0.0
2014-Sep-06 16:33N 57°04' E 012°16'0 0.0
2014-Sep-06 15:33N 57°04' E 012°16'0 0.0
2014-Sep-06 14:33N 57°04' E 012°16'0 0.0
2014-Sep-06 13:33N 57°04' E 012°16'0 0.0
2014-Sep-06 12:33N 57°04' E 012°16'  

Dump ship's entire track history